KAUO/AUO METAR and TAF weather

Enter ICAO airport designator
Station Type Date Time Source
KAUO METAR 2021/06/22 22:56 UTC NOAA

KAUO 222256Z AUTO 32008KT 10SM CLR 27/20 A2999 RMK AO2 SLP166 T02670200


Station Type Date Time Source
KAUO Decoded METAR 2021/06/22 22:56 UTC NOAA

Auburn-Opelika Airport, AL, United States (KAUO) 32-37N 085-26W
Jun 22, 2021 - 06:56 PM EDT / 2021.06.22 2256 UTC
Wind: from the NW (320 degrees) at 9 MPH (8 KT):0
Visibility: 10 mile(s):0
Sky conditions: clear
Temperature: 80.1 F (26.7 C)
Dew Point: 68.0 F (20.0 C)
Relative Humidity: 66%
Pressure (altimeter): 29.99 in. Hg (1015 hPa)
ob: KAUO 222256Z AUTO 32008KT 10SM CLR 27/20 A2999 RMK AO2 SLP166 T02670200
cycle: 23

Station Type Date Time Source
KAUO TAF UTC NOAA

Error!

Example: see airport list